Time;durP1;ratioP1;P1;durP2;ratioP2;P2;SDS_P1;SDS_P2;PMS_P1;PMS_P2;Temp;Humidity;BMP_temperature;BMP_pressure;BME280_temperature;BME280_humidity;BME280_pressure;Samples;Min_cycle;Max_cycle;Signal;HPM_P1;HPM_P2
2022/11/21 03:00:25;;;;;;;12.10;11.30;;;5.40;99.90;;;;;;5991464;23;20208;31
2022/11/21 03:02:54;;;;;;;11.83;11.10;;;5.50;99.90;;;;;;4873581;29;20229;-83
2022/11/21 03:05:22;;;;;;;12.10;11.30;;;5.50;99.90;;;;;;4875542;29;20217;-82
2022/11/21 03:07:49;;;;;;;11.97;11.13;;;5.50;99.90;;;;;;4871085;29;20668;-81
2022/11/21 03:10:16;;;;;;;12.10;11.27;;;5.50;99.90;;;;;;4875136;29;20669;-83
2022/11/21 03:12:44;;;;;;;12.67;11.77;;;5.40;99.90;;;;;;4877848;29;20228;-83
2022/11/21 03:15:13;;;;;;;12.97;12.07;;;5.50;99.90;;;;;;4881370;29;20205;-82
2022/11/21 03:17:40;;;;;;;12.50;11.60;;;5.50;99.90;;;;;;4888254;29;20201;-83
2022/11/21 03:20:10;;;;;;;12.50;11.63;;;5.50;99.90;;;;;;4881684;29;20558;-83
2022/11/21 03:22:37;;;;;;;11.67;10.97;;;5.50;99.90;;;;;;4884908;29;20511;-82
2022/11/21 03:25:04;;;;;;;11.93;11.23;;;5.50;99.90;;;;;;4885564;29;20205;-83
2022/11/21 03:27:31;;;;;;;12.40;11.53;;;5.50;99.90;;;;;;4881731;29;20661;-82
2022/11/21 03:29:57;;;;;;;12.77;12.07;;;5.50;99.90;;;;;;4882421;29;20228;-83
2022/11/21 03:32:24;;;;;;;11.80;11.13;;;5.50;99.90;;;;;;4892367;29;20570;-83
2022/11/21 03:34:52;;;;;;;11.67;10.97;;;5.50;99.90;;;;;;4884267;29;20212;-82
2022/11/21 03:37:20;;;;;;;11.10;10.30;;;5.50;99.90;;;;;;4889451;29;20241;-83
2022/11/21 03:39:47;;;;;;;11.20;10.50;;;5.40;99.90;;;;;;4889287;29;20202;-83
2022/11/21 03:42:14;;;;;;;11.47;10.70;;;5.40;99.90;;;;;;4889827;29;20225;-82
2022/11/21 03:44:41;;;;;;;11.40;10.60;;;5.40;99.90;;;;;;4892214;29;20206;-82
2022/11/21 03:47:08;;;;;;;11.37;10.77;;;5.40;99.90;;;;;;4886010;29;20221;-81
2022/11/21 03:49:35;;;;;;;11.10;10.50;;;5.40;99.90;;;;;;4884107;29;20318;-82
2022/11/21 03:52:01;;;;;;;12.00;11.40;;;5.40;99.90;;;;;;4883446;29;20221;-79
2022/11/21 03:54:30;;;;;;;12.50;11.70;;;5.40;99.90;;;;;;4883471;29;20208;-78
2022/11/21 03:56:56;;;;;;;11.37;10.63;;;5.40;99.90;;;;;;4883363;29;20226;-78
2022/11/21 03:59:25;;;;;;;11.50;10.90;;;5.40;99.90;;;;;;4887936;29;20212;-78
2022/11/21 04:01:51;;;;;;;11.90;11.10;;;5.40;99.90;;;;;;4880591;29;20682;-79
2022/11/21 04:04:18;;;;;;;12.33;11.63;;;5.40;99.90;;;;;;4882922;29;20216;-79
2022/11/21 04:06:45;;;;;;;11.17;10.57;;;5.40;99.90;;;;;;4893209;29;20208;-79
2022/11/21 04:09:12;;;;;;;11.33;10.73;;;5.40;99.90;;;;;;4890466;29;20209;-79
2022/11/21 04:11:40;;;;;;;11.40;10.80;;;5.40;99.90;;;;;;4891993;29;20219;-79
2022/11/21 04:14:07;;;;;;;12.03;11.43;;;5.40;99.90;;;;;;4881871;29;20222;-79
2022/11/21 04:16:34;;;;;;;11.40;10.67;;;5.40;99.90;;;;;;4880988;29;20204;-78
2022/11/21 04:19:01;;;;;;;11.47;10.87;;;5.40;99.90;;;;;;4884517;29;20202;-79
2022/11/21 04:21:27;;;;;;;11.70;11.10;;;5.40;99.90;;;;;;4886039;29;20783;-79
2022/11/21 04:23:54;;;;;;;12.50;11.73;;;5.30;99.90;;;;;;4889056;29;20201;-78
2022/11/21 04:26:21;;;;;;;11.30;10.70;;;5.30;99.90;;;;;;4885290;29;20205;-79
2022/11/21 04:28:49;;;;;;;11.20;10.60;;;5.30;99.90;;;;;;4885843;29;20193;-79
2022/11/21 04:31:16;;;;;;;11.67;10.97;;;5.20;99.90;;;;;;4889560;29;20231;-79
2022/11/21 04:33:43;;;;;;;11.67;11.07;;;5.20;99.90;;;;;;4887885;29;20205;-81
2022/11/21 04:36:10;;;;;;;11.07;10.47;;;5.20;99.90;;;;;;4889318;29;20201;-79
2022/11/21 04:38:37;;;;;;;11.20;10.60;;;5.20;99.90;;;;;;4890736;29;20193;-80
2022/11/21 04:41:04;;;;;;;11.50;10.90;;;5.10;99.90;;;;;;4889812;29;20208;-78
2022/11/21 04:43:31;;;;;;;11.77;11.17;;;5.10;99.90;;;;;;4891520;29;20218;-79
2022/11/21 04:45:59;;;;;;;10.97;10.37;;;5.10;99.90;;;;;;4889515;29;20721;-79
2022/11/21 04:48:26;;;;;;;11.17;10.57;;;5.10;99.90;;;;;;4885505;29;20205;-78
2022/11/21 04:50:53;;;;;;;11.70;11.00;;;5.10;99.90;;;;;;4885884;29;20222;-78
2022/11/21 04:53:20;;;;;;;11.77;11.17;;;5.10;99.90;;;;;;4889383;29;20210;-79
2022/11/21 04:55:46;;;;;;;12.27;11.60;;;5.10;99.90;;;;;;4886716;29;20206;-79
2022/11/21 04:58:14;;;;;;;12.47;11.77;;;5.10;99.90;;;;;;4887775;29;20217;-79
2022/11/21 05:00:40;;;;;;;12.23;11.53;;;5.10;99.90;;;;;;4888171;29;20570;-80
2022/11/21 05:03:09;;;;;;;11.73;11.03;;;5.10;99.90;;;;;;4886497;29;20225;-79
2022/11/21 05:05:36;;;;;;;11.13;10.53;;;5.00;99.90;;;;;;4883233;29;20292;-79
2022/11/21 05:08:03;;;;;;;11.30;10.70;;;5.00;99.90;;;;;;4883143;29;20749;-79
2022/11/21 05:13:19;;;;;;;11.67;11.07;;;4.90;99.90;;;;;;4889205;29;20205;-79
2022/11/21 05:13:22;;;;;;;11.80;11.20;;;4.90;99.90;;;;;;4885168;29;20701;-79
2022/11/21 05:15:50;;;;;;;11.73;11.13;;;4.80;99.90;;;;;;4890838;29;20213;-80
2022/11/21 05:18:19;;;;;;;12.10;11.50;;;4.70;99.90;;;;;;4880947;29;20678;-80
2022/11/21 05:20:46;;;;;;;11.93;11.33;;;4.60;99.90;;;;;;4879245;29;20466;-79
2022/11/21 05:23:13;;;;;;;12.17;11.57;;;4.60;99.90;;;;;;4881040;29;20225;-79
2022/11/21 05:25:40;;;;;;;11.87;11.17;;;4.50;99.90;;;;;;4882886;29;20266;-79
2022/11/21 05:28:07;;;;;;;11.60;11.00;;;4.50;99.90;;;;;;4883988;29;20209;-79
2022/11/21 05:30:34;;;;;;;12.30;11.60;;;4.50;99.90;;;;;;4882497;29;20205;-79
2022/11/21 05:33:00;;;;;;;12.30;11.60;;;4.50;99.90;;;;;;4883075;29;20193;-79
2022/11/21 05:35:29;;;;;;;12.30;11.60;;;4.50;99.90;;;;;;4885905;29;20197;-80
2022/11/21 05:37:56;;;;;;;13.27;12.47;;;4.50;99.90;;;;;;4887457;29;20619;-80
2022/11/21 05:40:24;;;;;;;13.43;12.63;;;4.50;99.90;;;;;;4883294;29;20208;-79
2022/11/21 05:45:35;;;;;;;12.33;11.70;;;4.50;99.90;;;;;;4880056;29;20196;-79
2022/11/21 05:48:06;;;;;;;12.43;11.80;;;4.50;99.90;;;;;;4881629;29;20201;-79
2022/11/21 05:50:35;;;;;;;12.40;11.70;;;4.50;99.90;;;;;;4876266;29;20208;-80
2022/11/21 05:53:03;;;;;;;12.30;11.60;;;4.60;99.90;;;;;;4882410;29;20649;-79
2022/11/21 05:55:30;;;;;;;12.77;12.07;;;4.60;99.90;;;;;;4880125;29;20200;-80
2022/11/21 05:57:59;;;;;;;12.50;11.90;;;4.60;99.90;;;;;;4881883;29;20209;-79
2022/11/21 06:00:26;;;;;;;12.43;11.83;;;4.60;99.90;;;;;;4894262;29;20197;-79
2022/11/21 06:05:50;;;;;;;12.20;11.60;;;4.50;99.90;;;;;;4822093;29;20195;-80
2022/11/21 06:08:17;;;;;;;12.17;11.57;;;4.50;99.90;;;;;;4866132;29;20239;-80
2022/11/21 06:10:44;;;;;;;11.97;11.27;;;4.50;99.90;;;;;;4884798;29;20280;-80
2022/11/21 06:13:21;;;;;;;12.50;11.80;;;4.50;99.90;;;;;;4887428;29;20554;-79
2022/11/21 06:15:50;;;;;;;11.93;11.33;;;4.40;99.90;;;;;;4880238;29;20229;-80
2022/11/21 06:18:17;;;;;;;12.20;11.60;;;4.40;99.90;;;;;;4888214;29;20213;-80
2022/11/21 06:20:45;;;;;;;13.17;12.43;;;4.40;99.90;;;;;;4894995;29;20243;-80
2022/11/21 06:23:13;;;;;;;12.80;12.00;;;4.30;99.90;;;;;;4892179;29;20259;-80
2022/11/21 06:25:40;;;;;;;12.37;11.57;;;4.30;99.90;;;;;;4898350;29;20646;-80
2022/11/21 06:28:07;;;;;;;12.30;11.60;;;4.30;99.90;;;;;;4889158;29;20208;-79
2022/11/21 06:30:35;;;;;;;13.77;12.97;;;4.30;99.90;;;;;;4883493;29;20216;-79
2022/11/21 06:33:04;;;;;;;12.87;12.17;;;4.30;99.90;;;;;;4888838;29;20192;-80
2022/11/21 06:35:31;;;;;;;13.07;12.30;;;4.30;99.90;;;;;;4865671;29;20660;-80
2022/11/21 06:37:58;;;;;;;12.40;11.73;;;4.30;99.90;;;;;;4886811;29;20204;-80
2022/11/21 06:40:26;;;;;;;12.87;12.17;;;4.20;99.90;;;;;;4877651;29;20670;-80
2022/11/21 06:42:53;;;;;;;12.70;12.00;;;4.20;99.90;;;;;;4872668;29;20222;-80
2022/11/21 06:45:20;;;;;;;12.70;12.00;;;4.30;99.90;;;;;;4880049;29;20698;-79
2022/11/21 06:47:47;;;;;;;12.10;11.50;;;4.30;99.90;;;;;;4885841;29;20204;-79
2022/11/21 06:50:14;;;;;;;12.70;12.00;;;4.40;99.90;;;;;;4887920;29;20211;-79
2022/11/21 06:52:41;;;;;;;12.73;11.90;;;4.40;99.90;;;;;;4889221;29;20701;-79
2022/11/21 06:55:09;;;;;;;13.20;12.50;;;4.40;99.90;;;;;;4882683;29;20201;-78
2022/11/21 06:57:37;;;;;;;13.20;12.50;;;4.40;99.90;;;;;;4887771;29;20210;-78
2022/11/21 07:00:05;;;;;;;13.03;12.33;;;4.40;99.90;;;;;;4884827;29;20579;-78
2022/11/21 07:02:32;;;;;;;13.10;12.40;;;4.50;99.90;;;;;;4893854;29;20318;-78
2022/11/21 07:04:59;;;;;;;12.90;12.10;;;4.60;99.90;;;;;;4886933;29;20272;-78
2022/11/21 07:07:26;;;;;;;12.50;11.80;;;4.60;99.90;;;;;;4885090;29;20207;-81
2022/11/21 07:09:53;;;;;;;12.80;12.00;;;4.60;99.90;;;;;;4885677;29;20212;-81
2022/11/21 07:15:06;;;;;;;13.03;12.10;;;4.70;99.90;;;;;;4885821;29;20201;-80
2022/11/21 07:17:33;;;;;;;12.97;12.27;;;4.70;99.90;;;;;;4887846;29;20207;-80
2022/11/21 07:20:00;;;;;;;12.77;12.00;;;4.70;99.90;;;;;;4883887;29;20221;-81
2022/11/21 07:22:27;;;;;;;13.10;12.20;;;4.70;99.90;;;;;;4874460;29;20228;-81
2022/11/21 07:24:54;;;;;;;13.87;13.07;;;4.80;99.90;;;;;;4888324;29;20277;-82
2022/11/21 07:27:21;;;;;;;13.47;12.57;;;4.80;99.90;;;;;;4891598;29;20251;-81
2022/11/21 07:29:47;;;;;;;13.10;12.30;;;4.90;99.90;;;;;;4892425;29;20213;-81
2022/11/21 07:32:16;;;;;;;14.40;13.30;;;4.90;99.90;;;;;;4887978;29;20225;-81
2022/11/21 07:34:43;;;;;;;13.90;13.10;;;5.00;99.90;;;;;;4888017;29;20194;-81
2022/11/21 07:37:10;;;;;;;14.23;13.43;;;5.00;99.90;;;;;;4889919;29;20196;-81
2022/11/21 07:39:37;;;;;;;13.30;12.50;;;5.00;99.90;;;;;;4884718;29;20217;-81
2022/11/21 07:42:04;;;;;;;14.17;12.80;;;5.00;99.90;;;;;;4887876;29;20225;-81
2022/11/21 07:44:30;;;;;;;13.87;12.87;;;5.00;99.90;;;;;;4892302;29;20207;-81
2022/11/21 07:46:57;;;;;;;12.67;11.90;;;5.00;99.90;;;;;;4885440;29;20220;-81
2022/11/21 07:49:25;;;;;;;13.07;12.27;;;5.00;99.90;;;;;;4884193;29;20205;-82
2022/11/21 07:51:52;;;;;;;12.77;11.90;;;5.00;99.90;;;;;;4889056;29;20273;-81
2022/11/21 07:54:19;;;;;;;12.50;11.70;;;5.00;99.90;;;;;;4890195;29;20220;-81
2022/11/21 07:56:46;;;;;;;12.77;11.87;;;5.10;99.90;;;;;;4882573;29;20201;-81
2022/11/21 07:59:13;;;;;;;12.67;11.87;;;5.10;99.90;;;;;;4883136;29;20209;-81
2022/11/21 08:01:40;;;;;;;12.53;11.63;;;5.20;99.90;;;;;;4890345;29;20627;-81
2022/11/21 08:04:06;;;;;;;12.27;11.50;;;5.20;99.90;;;;;;4883056;29;20209;-80
2022/11/21 08:06:35;;;;;;;12.20;11.40;;;5.30;99.90;;;;;;4887807;29;20211;-81
2022/11/21 08:09:02;;;;;;;12.20;11.50;;;5.40;99.90;;;;;;4887978;29;20206;-79
2022/11/21 08:11:29;;;;;;;12.40;11.70;;;5.60;99.90;;;;;;4881018;29;20217;-81
2022/11/21 08:13:58;;;;;;;12.00;11.20;;;5.70;99.90;;;;;;4888133;29;20217;-80
2022/11/21 08:16:26;;;;;;;11.63;10.87;;;5.80;99.90;;;;;;4883683;29;20209;-80
2022/11/21 08:18:53;;;;;;;12.20;11.50;;;5.90;99.90;;;;;;4890535;29;20197;-80
2022/11/21 08:21:20;;;;;;;12.27;11.40;;;6.00;99.90;;;;;;4886097;29;20230;-80
2022/11/21 08:23:49;;;;;;;12.17;11.30;;;6.10;99.90;;;;;;4885935;29;20228;-81
2022/11/21 08:26:16;;;;;;;12.67;11.87;;;6.10;99.90;;;;;;4886912;29;20846;-78
2022/11/21 08:28:43;;;;;;;13.23;12.33;;;6.00;99.90;;;;;;4887387;29;20220;-79
2022/11/21 08:31:10;;;;;;;11.97;11.17;;;6.30;99.90;;;;;;4887980;29;20233;-78
2022/11/21 08:33:37;;;;;;;12.27;11.37;;;6.60;99.90;;;;;;4886982;29;20269;-79
2022/11/21 08:36:04;;;;;;;11.40;10.63;;;6.90;99.90;;;;;;4882255;29;20208;-78
2022/11/21 08:38:31;;;;;;;11.77;10.97;;;7.10;99.90;;;;;;4888126;29;20203;-77
2022/11/21 08:43:44;;;;;;;12.00;11.10;;;7.00;99.90;;;;;;4877723;29;20742;-78
2022/11/21 08:46:11;;;;;;;13.43;12.43;;;7.30;99.90;;;;;;4886472;29;20208;-79
2022/11/21 08:48:38;;;;;;;11.90;11.13;;;7.40;99.90;;;;;;4889462;29;20558;-78
2022/11/21 08:51:04;;;;;;;12.87;11.77;;;7.40;99.90;;;;;;4887064;29;20227;-78
2022/11/21 08:53:31;;;;;;;11.83;11.03;;;7.30;99.90;;;;;;4882719;29;20208;-78
2022/11/21 08:55:59;;;;;;;11.73;10.70;;;7.20;99.90;;;;;;4883826;29;20215;-78
2022/11/21 08:58:26;;;;;;;11.70;10.90;;;7.30;99.90;;;;;;4887765;29;20206;-78
2022/11/21 09:00:53;;;;;;;11.63;10.80;;;7.30;99.90;;;;;;4889309;29;20241;-79
2022/11/21 09:03:20;;;;;;;12.00;11.10;;;7.20;99.90;;;;;;4880891;29;20642;-78
2022/11/21 09:05:47;;;;;;;11.20;10.40;;;7.30;99.90;;;;;;4886367;29;20220;-78
2022/11/21 09:08:14;;;;;;;11.13;10.43;;;7.30;99.90;;;;;;4887211;29;20216;-79
2022/11/21 09:10:40;;;;;;;11.03;10.33;;;7.40;99.90;;;;;;4885325;29;20203;-78
2022/11/21 09:13:11;;;;;;;11.60;10.80;;;7.70;99.90;;;;;;4884233;29;20578;-78
2022/11/21 09:18:22;;;;;;;11.27;10.47;;;7.80;99.90;;;;;;4882099;29;20210;-78
2022/11/21 09:20:49;;;;;;;12.40;11.47;;;7.90;99.90;;;;;;4883492;29;20232;-78
2022/11/21 09:23:16;;;;;;;12.93;12.10;;;8.00;99.90;;;;;;4884169;29;20246;-78
2022/11/21 09:25:44;;;;;;;12.60;11.70;;;8.00;99.90;;;;;;4880990;29;20205;-78
2022/11/21 09:28:13;;;;;;;12.20;11.50;;;7.90;99.90;;;;;;4878933;29;20205;-78
2022/11/21 09:30:41;;;;;;;12.70;11.77;;;8.00;99.90;;;;;;4888415;29;20212;-78
2022/11/21 09:33:10;;;;;;;12.00;11.27;;;8.10;99.90;;;;;;4886533;29;20197;-78
2022/11/21 09:35:37;;;;;;;12.03;11.23;;;8.10;99.90;;;;;;4885680;29;20207;-79
2022/11/21 09:38:04;;;;;;;11.40;10.70;;;8.20;99.90;;;;;;4879574;29;20205;-79
2022/11/21 09:40:34;;;;;;;12.57;11.70;;;8.20;99.90;;;;;;4874187;29;20448;-78
2022/11/21 09:43:14;;;;;;;11.40;10.70;;;8.30;99.90;;;;;;4881185;29;20224;-78
2022/11/21 09:45:47;;;;;;;11.70;10.90;;;8.40;99.90;;;;;;4872415;29;20236;-78
2022/11/21 09:48:18;;;;;;;11.80;11.00;;;8.60;99.90;;;;;;4880038;29;20460;-78
2022/11/21 09:50:49;;;;;;;11.57;10.77;;;8.60;99.90;;;;;;4881647;29;20237;-79
2022/11/21 09:53:20;;;;;;;11.23;10.43;;;8.60;99.90;;;;;;4885699;29;20671;-79
2022/11/21 09:55:50;;;;;;;11.10;10.40;;;8.70;99.90;;;;;;4886896;29;20193;-78
2022/11/21 09:58:29;;;;;;;11.20;10.40;;;8.70;99.90;;;;;;4885501;29;20216;-78
2022/11/21 10:00:58;;;;;;;11.83;10.90;;;8.70;99.90;;;;;;4885409;29;20644;-79
2022/11/21 10:03:29;;;;;;;11.43;10.67;;;8.70;99.90;;;;;;4885623;29;20245;-79
2022/11/21 10:06:00;;;;;;;11.40;10.60;;;8.70;99.90;;;;;;4886828;29;20208;-78
2022/11/21 10:08:34;;;;;;;11.20;10.50;;;8.60;99.90;;;;;;4898723;29;20198;-78
2022/11/21 10:11:13;;;;;;;12.00;11.00;;;8.60;99.90;;;;;;4885849;29;20228;-78
2022/11/21 10:13:49;;;;;;;11.20;10.50;;;8.60;99.90;;;;;;4884190;29;20228;-79
2022/11/21 10:16:22;;;;;;;11.23;10.43;;;8.50;99.90;;;;;;4880908;29;20201;-78
2022/11/21 10:19:11;;;;;;;11.27;10.47;;;8.50;99.90;;;;;;4885675;29;20204;-78
2022/11/21 10:22:13;;;;;;;11.70;11.00;;;8.40;99.90;;;;;;4876332;29;20228;-78
2022/11/21 10:24:48;;;;;;;11.43;10.73;;;8.40;99.90;;;;;;4875091;29;20692;-78
2022/11/21 10:27:21;;;;;;;11.50;10.60;;;8.40;99.90;;;;;;4884972;29;20205;-79
2022/11/21 10:29:53;;;;;;;11.73;10.90;;;8.40;99.90;;;;;;4886384;29;20216;-79
2022/11/21 10:32:27;;;;;;;11.87;11.10;;;8.40;99.90;;;;;;4885068;29;20224;-78
2022/11/21 10:34:58;;;;;;;10.80;10.00;;;8.40;99.90;;;;;;4886718;29;20198;-79
2022/11/21 10:37:32;;;;;;;11.20;10.30;;;8.30;99.90;;;;;;4884922;29;20599;-79
2022/11/21 10:40:12;;;;;;;11.17;10.47;;;8.20;99.90;;;;;;4881318;29;20662;-79
2022/11/21 10:42:45;;;;;;;11.50;10.70;;;8.20;99.90;;;;;;4875610;29;20634;-79
2022/11/21 10:45:15;;;;;;;11.30;10.50;;;8.20;99.90;;;;;;4878236;29;20220;-79
2022/11/21 10:47:45;;;;;;;11.60;10.80;;;8.30;99.90;;;;;;4877607;29;20245;-79
2022/11/21 10:50:28;;;;;;;11.10;10.40;;;8.40;99.90;;;;;;4884044;29;20220;-79
2022/11/21 10:54:31;;;;;;;11.67;10.53;;;8.40;99.90;;;;;;4881579;29;20209;-79
2022/11/21 10:56:04;;;;;;;11.10;10.30;;;8.50;99.90;;;;;;4880919;29;20222;-79
2022/11/21 10:58:36;;;;;;;10.53;9.93;;;8.60;99.90;;;;;;4873642;29;20227;-79
2022/11/21 11:01:03;;;;;;;11.37;10.60;;;8.70;99.90;;;;;;4883100;29;20241;-79
2022/11/21 11:03:32;;;;;;;10.33;9.73;;;8.70;99.90;;;;;;4885034;29;20231;-79
2022/11/21 11:05:59;;;;;;;10.10;9.50;;;8.80;99.90;;;;;;4884899;29;20237;-79
2022/11/21 11:08:27;;;;;;;10.97;9.87;;;8.90;99.90;;;;;;4881069;29;20201;-79
2022/11/21 11:11:03;;;;;;;9.90;9.30;;;9.00;99.90;;;;;;4880643;29;20233;-79
2022/11/21 11:13:34;;;;;;;9.83;9.23;;;9.10;99.90;;;;;;4888913;29;20200;-79
2022/11/21 11:16:05;;;;;;;10.10;9.40;;;9.30;99.90;;;;;;4883462;29;20201;-80
2022/11/21 11:18:36;;;;;;;9.93;9.23;;;9.40;99.90;;;;;;4880830;29;20221;-79
2022/11/21 11:21:16;;;;;;;10.70;9.80;;;9.50;99.90;;;;;;4885729;29;20221;-79
2022/11/21 11:23:43;;;;;;;10.50;9.70;;;9.60;99.90;;;;;;4887721;29;20232;-78
2022/11/21 11:26:26;;;;;;;11.10;10.30;;;9.50;99.90;;;;;;4885431;29;20283;-80
2022/11/21 11:28:54;;;;;;;11.73;10.80;;;9.60;99.90;;;;;;4886266;29;20208;-80
2022/11/21 11:31:22;;;;;;;10.80;10.00;;;9.50;99.90;;;;;;4879133;29;20265;-79
2022/11/21 11:33:55;;;;;;;11.10;10.30;;;9.40;99.90;;;;;;4883464;29;20312;-79
2022/11/21 11:36:38;;;;;;;10.80;10.10;;;9.30;99.90;;;;;;4879570;29;20603;-79
2022/11/21 11:39:18;;;;;;;9.98;9.38;;;9.20;99.90;;;;;;4878499;29;20454;-79
2022/11/21 11:48:00;;;;;;;10.70;9.90;;;9.10;99.90;;;;;;4881649;29;20689;-79
2022/11/21 11:50:35;;;;;;;10.80;10.10;;;9.10;99.90;;;;;;4885036;29;20205;-79
2022/11/21 11:53:07;;;;;;;11.17;10.37;;;9.10;99.90;;;;;;4887713;29;20204;-80
2022/11/21 11:55:40;;;;;;;10.80;9.90;;;9.10;99.90;;;;;;4887806;29;20212;-80
2022/11/21 11:58:14;;;;;;;10.87;9.97;;;9.20;99.90;;;;;;4881026;29;20220;-80
2022/11/21 12:00:45;;;;;;;11.00;10.17;;;9.20;99.90;;;;;;4891044;29;20264;-80
2022/11/21 12:03:17;;;;;;;10.70;9.90;;;9.20;99.90;;;;;;4881604;29;20224;-79
2022/11/21 12:05:55;;;;;;;10.63;9.70;;;9.20;99.90;;;;;;4885354;29;20209;-79
2022/11/21 12:08:26;;;;;;;10.17;9.47;;;9.20;99.90;;;;;;4887311;29;20714;-80
2022/11/21 12:13:48;;;;;;;10.30;9.60;;;9.40;99.90;;;;;;4883768;29;20292;-79
2022/11/21 12:16:16;;;;;;;10.60;9.90;;;9.40;99.90;;;;;;4884640;29;20201;-80
2022/11/21 12:18:52;;;;;;;10.87;9.80;;;9.50;99.90;;;;;;4872159;29;20204;-78
2022/11/21 12:21:22;;;;;;;10.10;9.50;;;9.50;99.90;;;;;;4886827;29;21719;-79
2022/11/21 12:23:50;;;;;;;10.60;9.80;;;9.60;99.90;;;;;;4888046;29;20253;-79
2022/11/21 12:26:36;;;;;;;11.40;10.60;;;9.70;99.90;;;;;;4887335;29;20212;-78
2022/11/21 12:29:15;;;;;;;10.53;9.73;;;9.70;99.90;;;;;;4897184;29;20722;-79
2022/11/21 12:32:09;;;;;;;10.83;10.03;;;9.70;99.90;;;;;;4890647;29;20224;-78
2022/11/21 12:34:52;;;;;;;11.17;10.30;;;9.70;99.90;;;;;;4882559;29;20192;-79
2022/11/21 12:37:30;;;;;;;11.40;10.50;;;9.70;99.90;;;;;;4891921;29;20734;-79
2022/11/21 12:40:05;;;;;;;10.27;9.57;;;9.70;99.90;;;;;;4889966;29;20244;-78
2022/11/21 12:42:50;;;;;;;10.33;9.63;;;9.70;99.90;;;;;;4881374;29;20747;-78
2022/11/21 12:45:28;;;;;;;10.27;9.67;;;9.80;99.90;;;;;;4882793;29;20205;-78
2022/11/21 12:54:33;;;;;;;10.33;9.63;;;9.90;99.90;;;;;;4879167;29;20284;-80
2022/11/21 12:57:09;;;;;;;11.00;10.10;;;9.80;99.90;;;;;;4893824;29;20205;-80
2022/11/21 12:59:48;;;;;;;10.73;10.00;;;9.80;99.90;;;;;;4879554;29;20216;-79
2022/11/21 13:02:29;;;;;;;10.67;9.90;;;9.70;99.90;;;;;;4881918;29;20244;-80
2022/11/21 13:04:59;;;;;;;10.80;10.00;;;9.70;99.90;;;;;;4892742;29;20222;-81
2022/11/21 13:07:29;;;;;;;10.80;10.10;;;9.60;99.90;;;;;;4878761;29;20689;-80
2022/11/21 13:10:00;;;;;;;10.43;9.73;;;9.60;99.90;;;;;;4878964;29;20255;-80
2022/11/21 13:12:35;;;;;;;11.23;10.27;;;9.60;99.90;;;;;;4879498;29;20252;-80
2022/11/21 13:15:13;;;;;;;10.63;9.90;;;9.60;99.90;;;;;;4881544;29;20201;-80
2022/11/21 13:17:46;;;;;;;10.27;9.57;;;9.60;99.90;;;;;;4879590;29;20688;-80
2022/11/21 13:20:21;;;;;;;10.60;9.80;;;9.50;99.90;;;;;;4893302;29;20200;-80
2022/11/21 13:22:50;;;;;;;10.10;9.47;;;9.50;99.90;;;;;;4882167;29;20221;-80
2022/11/21 13:25:50;;;;;;;10.10;9.50;;;9.50;99.90;;;;;;4875757;29;20649;-80
2022/11/21 13:28:38;;;;;;;9.93;9.27;;;9.50;99.90;;;;;;4892584;29;20219;-80
2022/11/21 13:31:28;;;;;;;10.10;9.40;;;9.50;99.90;;;;;;4877060;29;20236;-80
2022/11/21 13:33:55;;;;;;;10.20;9.50;;;9.50;99.90;;;;;;4882497;29;20636;-80
2022/11/21 13:36:43;;;;;;;10.17;9.40;;;9.40;99.90;;;;;;4885397;29;20201;-81
2022/11/21 13:39:32;;;;;;;10.00;9.30;;;9.40;99.90;;;;;;4865691;29;20220;-81
2022/11/21 13:44:58;;;;;;;9.90;9.30;;;9.10;99.90;;;;;;4883792;29;20228;-83
2022/11/21 13:47:56;;;;;;;9.97;9.30;;;9.00;99.90;;;;;;4894516;29;20208;-81
2022/11/21 13:50:48;;;;;;;10.40;9.70;;;8.80;99.90;;;;;;4880240;29;20213;-81
2022/11/21 13:53:38;;;;;;;10.33;9.63;;;8.70;99.90;;;;;;4851686;29;20548;-81
2022/11/21 13:56:12;;;;;;;10.00;9.30;;;8.60;99.90;;;;;;4887212;29;20232;-81
2022/11/21 13:58:52;;;;;;;10.30;9.50;;;8.60;99.90;;;;;;4885366;29;20209;-81
2022/11/21 14:01:59;;;;;;;9.77;9.20;;;8.50;99.90;;;;;;4894345;29;20775;-81
2022/11/21 14:04:57;;;;;;;9.23;8.70;;;8.50;99.90;;;;;;4892463;29;20221;-81
2022/11/21 14:07:26;;;;;;;9.57;8.97;;;8.50;99.90;;;;;;4887543;29;20588;-82
2022/11/21 14:09:55;;;;;;;9.33;8.73;;;8.50;99.90;;;;;;4887924;29;20205;-81
2022/11/21 14:12:27;;;;;;;9.50;8.90;;;8.50;99.90;;;;;;4878866;29;20233;-81
2022/11/21 14:15:08;;;;;;;9.80;9.00;;;8.50;99.90;;;;;;4882437;29;20613;-81
2022/11/21 14:17:43;;;;;;;10.37;9.57;;;8.50;99.90;;;;;;4873422;29;20209;-80
2022/11/21 14:20:18;;;;;;;9.53;8.93;;;8.50;99.90;;;;;;4877356;29;20205;-81
2022/11/21 14:22:53;;;;;;;10.10;9.40;;;8.50;99.90;;;;;;4881431;29;20232;-79
2022/11/21 14:25:26;;;;;;;10.00;9.30;;;8.50;99.90;;;;;;4888909;29;20248;-80
2022/11/21 14:27:55;;;;;;;9.70;9.10;;;8.40;99.90;;;;;;4882889;29;20677;-79
2022/11/21 14:30:34;;;;;;;9.70;9.10;;;8.40;99.90;;;;;;4877798;29;20209;-79
2022/11/21 14:33:28;;;;;;;9.80;8.80;;;8.40;99.90;;;;;;4873714;29;20203;-80
2022/11/21 14:35:58;;;;;;;9.63;8.83;;;8.40;99.90;;;;;;4876756;29;20567;-79
2022/11/21 14:38:26;;;;;;;9.43;8.83;;;8.40;99.90;;;;;;4891047;29;20192;-80
2022/11/21 14:41:25;;;;;;;9.27;8.67;;;8.40;99.90;;;;;;4879022;29;20258;-79
2022/11/21 14:44:06;;;;;;;9.50;8.90;;;8.40;99.90;;;;;;4876294;29;20220;-79
2022/11/21 14:46:35;;;;;;;9.80;9.10;;;8.40;99.90;;;;;;4878964;29;20203;-79
2022/11/21 14:49:28;;;;;;;9.93;9.23;;;8.30;99.90;;;;;;4886114;29;20237;-79
2022/11/21 14:52:02;;;;;;;10.60;9.70;;;8.30;99.90;;;;;;4884619;29;20862;-77
2022/11/21 14:54:32;;;;;;;10.97;10.10;;;8.20;99.90;;;;;;4883363;29;20299;-77
2022/11/21 14:57:01;;;;;;;10.67;9.77;;;8.20;99.90;;;;;;4892385;29;20628;-78
2022/11/21 14:59:32;;;;;;;10.43;9.73;;;8.10;99.90;;;;;;4890920;29;20206;-78
2022/11/21 15:02:02;;;;;;;10.07;9.37;;;8.10;99.90;;;;;;4895427;29;20232;-79
2022/11/21 15:04:33;;;;;;;9.97;9.27;;;8.00;99.90;;;;;;4896897;29;20299;-82
2022/11/21 15:07:00;;;;;;;9.93;9.20;;;8.00;99.90;;;;;;4881099;29;20193;-79
2022/11/21 15:09:28;;;;;;;10.00;9.30;;;7.90;99.90;;;;;;4892224;29;20205;-78
2022/11/21 15:12:01;;;;;;;9.80;9.10;;;7.80;99.90;;;;;;4870306;29;20236;-81
2022/11/21 15:14:31;;;;;;;10.17;9.27;;;7.70;99.90;;;;;;4874442;29;20265;-80
2022/11/21 15:17:00;;;;;;;10.37;9.53;;;7.70;99.90;;;;;;4879713;29;20216;-79
2022/11/21 15:19:30;;;;;;;10.00;9.23;;;7.60;99.90;;;;;;4875228;29;20278;-79
2022/11/21 15:22:02;;;;;;;9.90;9.10;;;7.50;99.90;;;;;;4881556;29;20646;-80
2022/11/21 15:24:36;;;;;;;10.80;9.90;;;7.40;99.90;;;;;;4881153;29;20228;-81
2022/11/21 15:27:28;;;;;;;11.53;10.63;;;7.30;99.90;;;;;;4889807;29;20211;-80
2022/11/21 15:30:25;;;;;;;11.73;10.83;;;7.30;99.90;;;;;;4888533;29;20677;-80
2022/11/21 15:33:03;;;;;;;10.67;9.87;;;7.20;99.90;;;;;;4881075;29;20673;-80
2022/11/21 15:35:44;;;;;;;10.53;9.83;;;7.10;99.90;;;;;;4896057;29;20197;-78
2022/11/21 15:38:21;;;;;;;10.53;9.63;;;7.00;99.90;;;;;;4892210;29;20208;-78
2022/11/21 15:41:06;;;;;;;10.23;9.43;;;6.90;99.90;;;;;;4892034;29;20585;-78
2022/11/21 15:43:45;;;;;;;10.93;10.00;;;6.90;99.90;;;;;;4879320;29;20286;-79
2022/11/21 15:46:18;;;;;;;11.40;10.60;;;6.80;99.90;;;;;;4880923;29;20218;-80
2022/11/21 15:48:46;;;;;;;10.97;10.00;;;6.70;99.90;;;;;;4881463;29;20211;-79
2022/11/21 15:51:13;;;;;;;10.77;10.07;;;6.70;99.90;;;;;;4882619;29;20787;-79
2022/11/21 15:53:40;;;;;;;11.73;10.83;;;6.60;99.90;;;;;;4884609;29;20218;-80
2022/11/21 15:56:09;;;;;;;12.43;11.53;;;6.50;99.90;;;;;;4889649;29;20207;-79
2022/11/21 15:58:36;;;;;;;10.50;9.80;;;6.50;99.90;;;;;;4896862;29;20206;-78
2022/11/21 16:01:05;;;;;;;11.60;10.80;;;6.40;99.90;;;;;;4894608;29;20300;-77
2022/11/21 16:03:32;;;;;;;11.20;10.40;;;6.40;99.90;;;;;;4897477;29;20246;-78
2022/11/21 16:06:03;;;;;;;11.93;11.03;;;6.30;99.90;;;;;;4884724;29;20326;-83
2022/11/21 16:08:29;;;;;;;11.27;10.50;;;6.20;99.90;;;;;;4880712;29;20198;-80
2022/11/21 16:10:56;;;;;;;12.43;11.47;;;6.10;99.90;;;;;;4885653;29;20231;-79
2022/11/21 16:13:23;;;;;;;12.37;11.53;;;6.00;99.90;;;;;;4883611;29;20254;-78
2022/11/21 16:15:50;;;;;;;12.53;11.63;;;5.90;99.90;;;;;;4874022;29;20201;-80
2022/11/21 16:18:21;;;;;;;13.10;12.07;;;5.90;99.90;;;;;;4884794;29;20214;-81
2022/11/21 16:20:48;;;;;;;13.10;12.13;;;5.80;99.90;;;;;;4898553;29;20228;-81
2022/11/21 16:23:14;;;;;;;13.50;12.43;;;5.70;99.90;;;;;;4876270;29;20210;-81
2022/11/21 16:25:52;;;;;;;13.03;12.13;;;5.60;99.90;;;;;;4873165;29;20221;-79
2022/11/21 16:28:19;;;;;;;13.10;12.20;;;5.60;99.90;;;;;;4873842;29;20222;-81
2022/11/21 16:30:45;;;;;;;12.57;11.77;;;5.60;99.90;;;;;;4874071;29;20289;-80
2022/11/21 16:33:12;;;;;;;12.53;11.73;;;5.50;99.90;;;;;;4888110;29;20218;-80